sensor_id;sensor_type;location;lat;lon;timestamp;temperature;humidity
17348;DHT22;8791;50.876;4.342;2022-11-20T00:01:13;4.60;99.90
17348;DHT22;8791;50.876;4.342;2022-11-20T00:03:40;4.40;99.90
17348;DHT22;8791;50.876;4.342;2022-11-20T00:06:09;4.40;99.90
17348;DHT22;8791;50.876;4.342;2022-11-20T00:08:36;4.40;99.90
17348;DHT22;8791;50.876;4.342;2022-11-20T00:11:04;4.40;99.90
17348;DHT22;8791;50.876;4.342;2022-11-20T00:13:32;4.40;99.90
17348;DHT22;8791;50.876;4.342;2022-11-20T00:16:00;4.40;99.90
17348;DHT22;8791;50.876;4.342;2022-11-20T00:18:30;4.30;99.90
17348;DHT22;8791;50.876;4.342;2022-11-20T00:21:01;4.40;99.90
17348;DHT22;8791;50.876;4.342;2022-11-20T00:23:27;4.30;99.90
17348;DHT22;8791;50.876;4.342;2022-11-20T00:25:54;4.30;99.90
17348;DHT22;8791;50.876;4.342;2022-11-20T00:28:21;4.20;99.90
17348;DHT22;8791;50.876;4.342;2022-11-20T00:30:48;4.30;99.90
17348;DHT22;8791;50.876;4.342;2022-11-20T00:33:15;4.30;99.90
17348;DHT22;8791;50.876;4.342;2022-11-20T00:35:43;4.30;99.90
17348;DHT22;8791;50.876;4.342;2022-11-20T00:38:10;4.40;99.90
17348;DHT22;8791;50.876;4.342;2022-11-20T00:40:36;4.40;99.90
17348;DHT22;8791;50.876;4.342;2022-11-20T00:43:03;4.50;99.90
17348;DHT22;8791;50.876;4.342;2022-11-20T00:45:30;4.60;99.90
17348;DHT22;8791;50.876;4.342;2022-11-20T00:47:57;4.60;99.90
17348;DHT22;8791;50.876;4.342;2022-11-20T00:50:24;4.50;99.90
17348;DHT22;8791;50.876;4.342;2022-11-20T00:52:52;4.40;99.90
17348;DHT22;8791;50.876;4.342;2022-11-20T00:55:18;4.50;99.90
17348;DHT22;8791;50.876;4.342;2022-11-20T00:57:45;4.50;99.90
17348;DHT22;8791;50.876;4.342;2022-11-20T01:00:12;4.40;99.90
17348;DHT22;8791;50.876;4.342;2022-11-20T01:02:39;4.50;99.90
17348;DHT22;8791;50.876;4.342;2022-11-20T01:05:06;4.50;99.90
17348;DHT22;8791;50.876;4.342;2022-11-20T01:07:33;4.40;99.90
17348;DHT22;8791;50.876;4.342;2022-11-20T01:10:01;4.30;99.90
17348;DHT22;8791;50.876;4.342;2022-11-20T01:12:28;4.30;99.90
17348;DHT22;8791;50.876;4.342;2022-11-20T01:14:55;4.30;99.90
17348;DHT22;8791;50.876;4.342;2022-11-20T01:17:22;4.30;99.90
17348;DHT22;8791;50.876;4.342;2022-11-20T01:19:49;4.30;99.90
17348;DHT22;8791;50.876;4.342;2022-11-20T01:22:16;4.30;99.90
17348;DHT22;8791;50.876;4.342;2022-11-20T01:24:43;4.40;99.90
17348;DHT22;8791;50.876;4.342;2022-11-20T01:27:11;4.30;99.90
17348;DHT22;8791;50.876;4.342;2022-11-20T01:29:38;4.20;99.90
17348;DHT22;8791;50.876;4.342;2022-11-20T01:32:05;4.30;99.90
17348;DHT22;8791;50.876;4.342;2022-11-20T01:34:31;4.30;99.90
17348;DHT22;8791;50.876;4.342;2022-11-20T01:36:58;4.30;99.90
17348;DHT22;8791;50.876;4.342;2022-11-20T01:39:26;4.40;99.90
17348;DHT22;8791;50.876;4.342;2022-11-20T01:41:54;4.50;99.90
17348;DHT22;8791;50.876;4.342;2022-11-20T01:44:55;4.40;99.90
17348;DHT22;8791;50.876;4.342;2022-11-20T01:47:27;4.40;99.90
17348;DHT22;8791;50.876;4.342;2022-11-20T01:49:57;4.50;99.90
17348;DHT22;8791;50.876;4.342;2022-11-20T01:52:29;4.40;99.90
17348;DHT22;8791;50.876;4.342;2022-11-20T01:55:02;4.60;99.90
17348;DHT22;8791;50.876;4.342;2022-11-20T01:57:31;4.50;99.90
17348;DHT22;8791;50.876;4.342;2022-11-20T02:00:04;4.40;99.90
17348;DHT22;8791;50.876;4.342;2022-11-20T02:02:32;4.40;99.90
17348;DHT22;8791;50.876;4.342;2022-11-20T02:05:04;4.40;99.90
17348;DHT22;8791;50.876;4.342;2022-11-20T02:07:36;4.40;99.90
17348;DHT22;8791;50.876;4.342;2022-11-20T02:10:04;4.40;99.90
17348;DHT22;8791;50.876;4.342;2022-11-20T02:12:30;4.30;99.90
17348;DHT22;8791;50.876;4.342;2022-11-20T02:15:16;4.60;99.90
17348;DHT22;8791;50.876;4.342;2022-11-20T02:17:43;4.60;99.90
17348;DHT22;8791;50.876;4.342;2022-11-20T02:20:10;4.70;99.90
17348;DHT22;8791;50.876;4.342;2022-11-20T02:22:41;4.80;99.90
17348;DHT22;8791;50.876;4.342;2022-11-20T02:25:13;5.00;99.90
17348;DHT22;8791;50.876;4.342;2022-11-20T02:27:41;5.20;99.90
17348;DHT22;8791;50.876;4.342;2022-11-20T02:30:09;5.10;99.90
17348;DHT22;8791;50.876;4.342;2022-11-20T02:32:39;5.20;99.90
17348;DHT22;8791;50.876;4.342;2022-11-20T02:35:08;5.20;99.90
17348;DHT22;8791;50.876;4.342;2022-11-20T02:37:38;5.20;99.90
17348;DHT22;8791;50.876;4.342;2022-11-20T02:40:07;5.00;99.90
17348;DHT22;8791;50.876;4.342;2022-11-20T02:42:36;4.90;99.90
17348;DHT22;8791;50.876;4.342;2022-11-20T02:45:03;5.00;99.90
17348;DHT22;8791;50.876;4.342;2022-11-20T02:47:30;4.90;99.90
17348;DHT22;8791;50.876;4.342;2022-11-20T02:49:57;4.80;99.90
17348;DHT22;8791;50.876;4.342;2022-11-20T02:52:25;5.00;99.90
17348;DHT22;8791;50.876;4.342;2022-11-20T02:54:52;5.00;99.90
17348;DHT22;8791;50.876;4.342;2022-11-20T02:57:18;5.10;99.90
17348;DHT22;8791;50.876;4.342;2022-11-20T02:59:47;5.20;99.90
17348;DHT22;8791;50.876;4.342;2022-11-20T03:02:13;5.30;99.90
17348;DHT22;8791;50.876;4.342;2022-11-20T03:04:40;5.30;99.90
17348;DHT22;8791;50.876;4.342;2022-11-20T03:07:07;5.30;99.90
17348;DHT22;8791;50.876;4.342;2022-11-20T03:09:35;5.20;99.90
17348;DHT22;8791;50.876;4.342;2022-11-20T03:12:02;5.00;99.90
17348;DHT22;8791;50.876;4.342;2022-11-20T03:14:28;5.00;99.90
17348;DHT22;8791;50.876;4.342;2022-11-20T03:16:57;5.10;99.90
17348;DHT22;8791;50.876;4.342;2022-11-20T03:19:24;5.30;99.90
17348;DHT22;8791;50.876;4.342;2022-11-20T03:21:50;5.20;99.90
17348;DHT22;8791;50.876;4.342;2022-11-20T03:24:17;5.20;99.90
17348;DHT22;8791;50.876;4.342;2022-11-20T03:26:44;5.20;99.90
17348;DHT22;8791;50.876;4.342;2022-11-20T03:29:11;5.20;99.90
17348;DHT22;8791;50.876;4.342;2022-11-20T03:31:39;5.20;99.90
17348;DHT22;8791;50.876;4.342;2022-11-20T03:34:09;5.10;99.90
17348;DHT22;8791;50.876;4.342;2022-11-20T03:36:37;5.00;99.90
17348;DHT22;8791;50.876;4.342;2022-11-20T03:39:04;5.10;99.90
17348;DHT22;8791;50.876;4.342;2022-11-20T03:41:36;5.10;99.90
17348;DHT22;8791;50.876;4.342;2022-11-20T03:44:04;5.00;99.90
17348;DHT22;8791;50.876;4.342;2022-11-20T03:46:31;5.00;99.90
17348;DHT22;8791;50.876;4.342;2022-11-20T03:48:58;5.10;99.90
17348;DHT22;8791;50.876;4.342;2022-11-20T03:51:28;5.30;99.90
17348;DHT22;8791;50.876;4.342;2022-11-20T03:53:56;5.50;99.90
17348;DHT22;8791;50.876;4.342;2022-11-20T03:56:25;5.40;99.90
17348;DHT22;8791;50.876;4.342;2022-11-20T03:58:53;5.30;99.90
17348;DHT22;8791;50.876;4.342;2022-11-20T04:01:21;5.20;99.90
17348;DHT22;8791;50.876;4.342;2022-11-20T04:03:50;5.20;99.90
17348;DHT22;8791;50.876;4.342;2022-11-20T04:06:19;5.20;99.90
17348;DHT22;8791;50.876;4.342;2022-11-20T04:08:48;5.20;99.90
17348;DHT22;8791;50.876;4.342;2022-11-20T04:11:16;5.10;99.90
17348;DHT22;8791;50.876;4.342;2022-11-20T04:13:47;5.10;99.90
17348;DHT22;8791;50.876;4.342;2022-11-20T04:16:14;5.10;99.90
17348;DHT22;8791;50.876;4.342;2022-11-20T04:18:41;5.10;99.90
17348;DHT22;8791;50.876;4.342;2022-11-20T04:21:09;5.20;99.90
17348;DHT22;8791;50.876;4.342;2022-11-20T04:23:36;5.30;99.90
17348;DHT22;8791;50.876;4.342;2022-11-20T04:26:06;5.30;99.90
17348;DHT22;8791;50.876;4.342;2022-11-20T04:28:33;5.10;99.90
17348;DHT22;8791;50.876;4.342;2022-11-20T04:31:04;5.00;99.90
17348;DHT22;8791;50.876;4.342;2022-11-20T04:33:31;5.10;99.90
17348;DHT22;8791;50.876;4.342;2022-11-20T04:36:01;5.00;99.90
17348;DHT22;8791;50.876;4.342;2022-11-20T04:38:28;5.20;99.90
17348;DHT22;8791;50.876;4.342;2022-11-20T04:40:58;5.20;99.90
17348;DHT22;8791;50.876;4.342;2022-11-20T04:43:27;5.50;99.90
17348;DHT22;8791;50.876;4.342;2022-11-20T04:45:55;5.40;99.90
17348;DHT22;8791;50.876;4.342;2022-11-20T04:48:23;5.30;99.90
17348;DHT22;8791;50.876;4.342;2022-11-20T04:50:50;5.30;99.90
17348;DHT22;8791;50.876;4.342;2022-11-20T04:53:17;5.30;99.90
17348;DHT22;8791;50.876;4.342;2022-11-20T04:55:44;5.10;99.90
17348;DHT22;8791;50.876;4.342;2022-11-20T04:58:11;5.00;99.90
17348;DHT22;8791;50.876;4.342;2022-11-20T05:00:39;5.10;99.90
17348;DHT22;8791;50.876;4.342;2022-11-20T05:03:06;5.50;99.90
17348;DHT22;8791;50.876;4.342;2022-11-20T05:05:34;5.60;99.90
17348;DHT22;8791;50.876;4.342;2022-11-20T05:08:01;5.50;99.90
17348;DHT22;8791;50.876;4.342;2022-11-20T05:10:28;5.60;99.90
17348;DHT22;8791;50.876;4.342;2022-11-20T05:12:56;5.50;99.90
17348;DHT22;8791;50.876;4.342;2022-11-20T05:15:23;5.40;99.90
17348;DHT22;8791;50.876;4.342;2022-11-20T05:17:52;5.30;99.90
17348;DHT22;8791;50.876;4.342;2022-11-20T05:20:19;5.50;99.90
17348;DHT22;8791;50.876;4.342;2022-11-20T05:22:46;5.50;99.90
17348;DHT22;8791;50.876;4.342;2022-11-20T05:25:13;5.50;99.90
17348;DHT22;8791;50.876;4.342;2022-11-20T05:27:39;5.40;99.90
17348;DHT22;8791;50.876;4.342;2022-11-20T05:30:07;5.60;99.90
17348;DHT22;8791;50.876;4.342;2022-11-20T05:32:34;5.70;99.90
17348;DHT22;8791;50.876;4.342;2022-11-20T05:35:03;5.70;99.90
17348;DHT22;8791;50.876;4.342;2022-11-20T05:37:30;5.80;99.90
17348;DHT22;8791;50.876;4.342;2022-11-20T05:39:57;5.70;99.90
17348;DHT22;8791;50.876;4.342;2022-11-20T05:42:24;5.60;99.90
17348;DHT22;8791;50.876;4.342;2022-11-20T05:44:56;5.50;99.90
17348;DHT22;8791;50.876;4.342;2022-11-20T05:47:23;5.60;99.90
17348;DHT22;8791;50.876;4.342;2022-11-20T05:49:50;5.40;99.90
17348;DHT22;8791;50.876;4.342;2022-11-20T05:52:18;5.30;99.90
17348;DHT22;8791;50.876;4.342;2022-11-20T05:54:45;5.30;99.90
17348;DHT22;8791;50.876;4.342;2022-11-20T05:57:12;5.30;99.90
17348;DHT22;8791;50.876;4.342;2022-11-20T05:59:39;5.40;99.90
17348;DHT22;8791;50.876;4.342;2022-11-20T06:02:06;5.50;99.90
17348;DHT22;8791;50.876;4.342;2022-11-20T06:04:32;5.60;99.90
17348;DHT22;8791;50.876;4.342;2022-11-20T06:06:59;5.40;99.90
17348;DHT22;8791;50.876;4.342;2022-11-20T06:09:27;5.30;99.90
17348;DHT22;8791;50.876;4.342;2022-11-20T06:11:54;5.30;99.90
17348;DHT22;8791;50.876;4.342;2022-11-20T06:14:21;5.20;99.90
17348;DHT22;8791;50.876;4.342;2022-11-20T06:16:47;5.30;99.90
17348;DHT22;8791;50.876;4.342;2022-11-20T06:19:14;5.30;99.90
17348;DHT22;8791;50.876;4.342;2022-11-20T06:21:41;5.40;99.90
17348;DHT22;8791;50.876;4.342;2022-11-20T06:24:09;5.40;99.90
17348;DHT22;8791;50.876;4.342;2022-11-20T06:26:37;5.50;99.90
17348;DHT22;8791;50.876;4.342;2022-11-20T06:29:04;5.40;99.90
17348;DHT22;8791;50.876;4.342;2022-11-20T06:31:31;5.40;99.90
17348;DHT22;8791;50.876;4.342;2022-11-20T06:34:00;5.50;99.90
17348;DHT22;8791;50.876;4.342;2022-11-20T06:36:27;5.50;99.90
17348;DHT22;8791;50.876;4.342;2022-11-20T06:38:54;5.50;99.90
17348;DHT22;8791;50.876;4.342;2022-11-20T06:41:22;5.50;99.90
17348;DHT22;8791;50.876;4.342;2022-11-20T06:43:50;5.60;99.90
17348;DHT22;8791;50.876;4.342;2022-11-20T06:46:19;5.50;99.90
17348;DHT22;8791;50.876;4.342;2022-11-20T06:48:46;5.50;99.90
17348;DHT22;8791;50.876;4.342;2022-11-20T06:51:13;5.40;99.90
17348;DHT22;8791;50.876;4.342;2022-11-20T06:53:40;5.60;99.90
17348;DHT22;8791;50.876;4.342;2022-11-20T06:56:07;5.60;99.90
17348;DHT22;8791;50.876;4.342;2022-11-20T06:58:35;5.60;99.90
17348;DHT22;8791;50.876;4.342;2022-11-20T07:01:05;5.60;99.90
17348;DHT22;8791;50.876;4.342;2022-11-20T07:03:33;5.60;99.90
17348;DHT22;8791;50.876;4.342;2022-11-20T07:06:01;5.50;99.90
17348;DHT22;8791;50.876;4.342;2022-11-20T07:08:28;5.60;99.90
17348;DHT22;8791;50.876;4.342;2022-11-20T07:10:57;5.70;99.90
17348;DHT22;8791;50.876;4.342;2022-11-20T07:13:25;5.90;99.90
17348;DHT22;8791;50.876;4.342;2022-11-20T07:15:52;5.80;99.90
17348;DHT22;8791;50.876;4.342;2022-11-20T07:18:20;5.80;99.90
17348;DHT22;8791;50.876;4.342;2022-11-20T07:20:47;5.80;99.90
17348;DHT22;8791;50.876;4.342;2022-11-20T07:23:14;5.80;99.90
17348;DHT22;8791;50.876;4.342;2022-11-20T07:25:40;5.80;99.90
17348;DHT22;8791;50.876;4.342;2022-11-20T07:28:07;6.10;99.90
17348;DHT22;8791;50.876;4.342;2022-11-20T07:30:36;6.40;99.90
17348;DHT22;8791;50.876;4.342;2022-11-20T07:33:03;6.50;99.90
17348;DHT22;8791;50.876;4.342;2022-11-20T07:35:31;6.30;99.90
17348;DHT22;8791;50.876;4.342;2022-11-20T07:37:58;6.20;99.90
17348;DHT22;8791;50.876;4.342;2022-11-20T07:40:25;6.20;99.90
17348;DHT22;8791;50.876;4.342;2022-11-20T07:42:53;6.30;99.90
17348;DHT22;8791;50.876;4.342;2022-11-20T07:45:21;6.40;99.90
17348;DHT22;8791;50.876;4.342;2022-11-20T07:47:48;6.40;99.90
17348;DHT22;8791;50.876;4.342;2022-11-20T07:50:16;6.50;99.90
17348;DHT22;8791;50.876;4.342;2022-11-20T07:52:45;6.40;99.90
17348;DHT22;8791;50.876;4.342;2022-11-20T07:55:12;6.40;99.90
17348;DHT22;8791;50.876;4.342;2022-11-20T07:57:39;6.60;99.90
17348;DHT22;8791;50.876;4.342;2022-11-20T08:00:08;6.50;99.90
17348;DHT22;8791;50.876;4.342;2022-11-20T08:02:37;6.40;99.90
17348;DHT22;8791;50.876;4.342;2022-11-20T08:05:05;6.40;99.90
17348;DHT22;8791;50.876;4.342;2022-11-20T08:07:35;6.50;99.90
17348;DHT22;8791;50.876;4.342;2022-11-20T08:10:04;6.50;99.90
17348;DHT22;8791;50.876;4.342;2022-11-20T08:12:31;6.30;99.90
17348;DHT22;8791;50.876;4.342;2022-11-20T08:15:16;6.30;99.90
17348;DHT22;8791;50.876;4.342;2022-11-20T08:17:43;6.60;99.90
17348;DHT22;8791;50.876;4.342;2022-11-20T08:20:10;6.60;99.90
17348;DHT22;8791;50.876;4.342;2022-11-20T08:22:37;6.80;99.90
17348;DHT22;8791;50.876;4.342;2022-11-20T08:25:05;6.70;99.90
17348;DHT22;8791;50.876;4.342;2022-11-20T08:27:32;6.90;99.90
17348;DHT22;8791;50.876;4.342;2022-11-20T08:29:59;6.90;99.90
17348;DHT22;8791;50.876;4.342;2022-11-20T08:32:26;6.80;99.90
17348;DHT22;8791;50.876;4.342;2022-11-20T08:34:53;6.70;99.90
17348;DHT22;8791;50.876;4.342;2022-11-20T08:37:20;6.70;99.90
17348;DHT22;8791;50.876;4.342;2022-11-20T08:39:47;6.80;99.90
17348;DHT22;8791;50.876;4.342;2022-11-20T08:42:15;6.80;99.90
17348;DHT22;8791;50.876;4.342;2022-11-20T08:44:42;6.70;99.90
17348;DHT22;8791;50.876;4.342;2022-11-20T08:47:09;6.70;99.90
17348;DHT22;8791;50.876;4.342;2022-11-20T08:49:35;6.70;99.90
17348;DHT22;8791;50.876;4.342;2022-11-20T08:52:02;6.80;99.90
17348;DHT22;8791;50.876;4.342;2022-11-20T08:54:29;7.00;99.90
17348;DHT22;8791;50.876;4.342;2022-11-20T08:56:56;7.20;99.90
17348;DHT22;8791;50.876;4.342;2022-11-20T08:59:24;7.20;99.90
17348;DHT22;8791;50.876;4.342;2022-11-20T09:01:51;7.00;99.90
17348;DHT22;8791;50.876;4.342;2022-11-20T09:04:18;7.00;99.90
17348;DHT22;8791;50.876;4.342;2022-11-20T09:06:44;7.00;99.90
17348;DHT22;8791;50.876;4.342;2022-11-20T09:09:11;7.00;99.90
17348;DHT22;8791;50.876;4.342;2022-11-20T09:11:38;7.10;99.90
17348;DHT22;8791;50.876;4.342;2022-11-20T09:14:05;7.20;99.90
17348;DHT22;8791;50.876;4.342;2022-11-20T09:16:33;7.20;99.90
17348;DHT22;8791;50.876;4.342;2022-11-20T09:19:00;7.20;99.90
17348;DHT22;8791;50.876;4.342;2022-11-20T09:21:27;7.20;99.90
17348;DHT22;8791;50.876;4.342;2022-11-20T09:23:54;7.10;99.90
17348;DHT22;8791;50.876;4.342;2022-11-20T09:26:21;7.20;99.90
17348;DHT22;8791;50.876;4.342;2022-11-20T09:28:47;7.20;99.90
17348;DHT22;8791;50.876;4.342;2022-11-20T09:31:21;7.30;99.90
17348;DHT22;8791;50.876;4.342;2022-11-20T09:33:50;7.40;99.90
17348;DHT22;8791;50.876;4.342;2022-11-20T09:36:17;7.50;99.90
17348;DHT22;8791;50.876;4.342;2022-11-20T09:38:44;7.50;99.90
17348;DHT22;8791;50.876;4.342;2022-11-20T09:41:26;7.50;99.90
17348;DHT22;8791;50.876;4.342;2022-11-20T09:43:59;7.70;99.90
17348;DHT22;8791;50.876;4.342;2022-11-20T09:46:35;7.70;99.90
17348;DHT22;8791;50.876;4.342;2022-11-20T09:49:19;7.70;99.90
17348;DHT22;8791;50.876;4.342;2022-11-20T09:51:57;7.80;99.90
17348;DHT22;8791;50.876;4.342;2022-11-20T09:54:29;7.90;99.90
17348;DHT22;8791;50.876;4.342;2022-11-20T09:57:00;8.10;99.90
17348;DHT22;8791;50.876;4.342;2022-11-20T09:59:34;8.00;99.90
17348;DHT22;8791;50.876;4.342;2022-11-20T10:02:06;8.10;99.90
17348;DHT22;8791;50.876;4.342;2022-11-20T10:04:44;8.30;99.90
17348;DHT22;8791;50.876;4.342;2022-11-20T10:07:16;8.60;99.90
17348;DHT22;8791;50.876;4.342;2022-11-20T10:09:50;8.50;99.90
17348;DHT22;8791;50.876;4.342;2022-11-20T10:12:25;8.50;99.90
17348;DHT22;8791;50.876;4.342;2022-11-20T10:15:03;8.60;99.90
17348;DHT22;8791;50.876;4.342;2022-11-20T10:17:46;8.60;99.90
17348;DHT22;8791;50.876;4.342;2022-11-20T10:20:23;8.70;99.90
17348;DHT22;8791;50.876;4.342;2022-11-20T10:23:04;8.80;99.90
17348;DHT22;8791;50.876;4.342;2022-11-20T10:25:38;8.90;99.90
17348;DHT22;8791;50.876;4.342;2022-11-20T10:28:27;9.00;99.90
17348;DHT22;8791;50.876;4.342;2022-11-20T10:31:00;9.10;99.90
17348;DHT22;8791;50.876;4.342;2022-11-20T10:33:32;9.00;99.90
17348;DHT22;8791;50.876;4.342;2022-11-20T10:36:08;8.90;99.90
17348;DHT22;8791;50.876;4.342;2022-11-20T10:38:40;8.80;99.90
17348;DHT22;8791;50.876;4.342;2022-11-20T10:41:16;9.00;99.90
17348;DHT22;8791;50.876;4.342;2022-11-20T10:44:00;9.00;99.90
17348;DHT22;8791;50.876;4.342;2022-11-20T10:46:35;9.00;99.90
17348;DHT22;8791;50.876;4.342;2022-11-20T10:49:09;9.00;99.90
17348;DHT22;8791;50.876;4.342;2022-11-20T10:51:49;9.10;99.90
17348;DHT22;8791;50.876;4.342;2022-11-20T10:54:24;9.20;99.90
17348;DHT22;8791;50.876;4.342;2022-11-20T10:56:56;9.00;99.90
17348;DHT22;8791;50.876;4.342;2022-11-20T10:59:45;8.80;99.90
17348;DHT22;8791;50.876;4.342;2022-11-20T11:02:17;8.90;99.90
17348;DHT22;8791;50.876;4.342;2022-11-20T11:04:45;8.90;99.90
17348;DHT22;8791;50.876;4.342;2022-11-20T11:07:16;9.00;99.90
17348;DHT22;8791;50.876;4.342;2022-11-20T11:09:47;9.20;99.90
17348;DHT22;8791;50.876;4.342;2022-11-20T11:12:15;9.40;99.90
17348;DHT22;8791;50.876;4.342;2022-11-20T11:14:44;9.50;99.90
17348;DHT22;8791;50.876;4.342;2022-11-20T11:17:27;9.40;99.90
17348;DHT22;8791;50.876;4.342;2022-11-20T11:20:06;9.20;99.90
17348;DHT22;8791;50.876;4.342;2022-11-20T11:22:45;9.10;99.90
17348;DHT22;8791;50.876;4.342;2022-11-20T11:25:27;9.10;99.90
17348;DHT22;8791;50.876;4.342;2022-11-20T11:27:55;9.10;99.90
17348;DHT22;8791;50.876;4.342;2022-11-20T11:30:23;9.10;99.90
17348;DHT22;8791;50.876;4.342;2022-11-20T11:32:50;9.00;99.90
17348;DHT22;8791;50.876;4.342;2022-11-20T11:35:23;9.10;99.90
17348;DHT22;8791;50.876;4.342;2022-11-20T11:37:53;9.20;99.90
17348;DHT22;8791;50.876;4.342;2022-11-20T11:40:21;9.30;99.90
17348;DHT22;8791;50.876;4.342;2022-11-20T11:42:56;9.40;99.90
17348;DHT22;8791;50.876;4.342;2022-11-20T11:45:23;9.40;99.90
17348;DHT22;8791;50.876;4.342;2022-11-20T11:47:53;9.40;99.90
17348;DHT22;8791;50.876;4.342;2022-11-20T11:50:22;9.20;99.90
17348;DHT22;8791;50.876;4.342;2022-11-20T11:52:59;9.10;99.90
17348;DHT22;8791;50.876;4.342;2022-11-20T11:55:33;9.10;99.90
17348;DHT22;8791;50.876;4.342;2022-11-20T11:58:14;9.00;99.90
17348;DHT22;8791;50.876;4.342;2022-11-20T12:00:51;9.10;99.90
17348;DHT22;8791;50.876;4.342;2022-11-20T12:03:24;9.20;99.90
17348;DHT22;8791;50.876;4.342;2022-11-20T12:05:57;9.20;99.90
17348;DHT22;8791;50.876;4.342;2022-11-20T12:08:29;9.20;99.90
17348;DHT22;8791;50.876;4.342;2022-11-20T12:11:02;9.20;99.90
17348;DHT22;8791;50.876;4.342;2022-11-20T12:13:39;9.20;99.90
17348;DHT22;8791;50.876;4.342;2022-11-20T12:16:11;9.10;99.90
17348;DHT22;8791;50.876;4.342;2022-11-20T12:18:39;9.10;99.90
17348;DHT22;8791;50.876;4.342;2022-11-20T12:21:18;9.00;99.90
17348;DHT22;8791;50.876;4.342;2022-11-20T12:26:58;8.80;99.90
17348;DHT22;8791;50.876;4.342;2022-11-20T12:29:37;8.80;99.90
17348;DHT22;8791;50.876;4.342;2022-11-20T12:32:30;8.70;99.90
17348;DHT22;8791;50.876;4.342;2022-11-20T12:35:08;8.60;99.90
17348;DHT22;8791;50.876;4.342;2022-11-20T12:37:45;8.60;99.90
17348;DHT22;8791;50.876;4.342;2022-11-20T12:40:28;8.60;99.90
17348;DHT22;8791;50.876;4.342;2022-11-20T12:43:06;8.80;99.90
17348;DHT22;8791;50.876;4.342;2022-11-20T12:46:18;8.70;99.90
17348;DHT22;8791;50.876;4.342;2022-11-20T12:48:54;8.70;99.90
17348;DHT22;8791;50.876;4.342;2022-11-20T12:51:39;8.50;99.90
17348;DHT22;8791;50.876;4.342;2022-11-20T12:54:36;8.70;99.90
17348;DHT22;8791;50.876;4.342;2022-11-20T12:57:14;8.70;99.90
17348;DHT22;8791;50.876;4.342;2022-11-20T13:00:11;8.60;99.90
17348;DHT22;8791;50.876;4.342;2022-11-20T13:05:40;8.80;99.90
17348;DHT22;8791;50.876;4.342;2022-11-20T13:08:20;8.70;99.90
17348;DHT22;8791;50.876;4.342;2022-11-20T13:10:52;8.50;99.90
17348;DHT22;8791;50.876;4.342;2022-11-20T13:13:31;8.50;99.90
17348;DHT22;8791;50.876;4.342;2022-11-20T13:16:04;8.50;99.90
17348;DHT22;8791;50.876;4.342;2022-11-20T13:18:38;8.50;99.90
17348;DHT22;8791;50.876;4.342;2022-11-20T13:21:14;8.50;99.90
17348;DHT22;8791;50.876;4.342;2022-11-20T13:23:42;8.50;99.90
17348;DHT22;8791;50.876;4.342;2022-11-20T13:26:17;8.50;99.90
17348;DHT22;8791;50.876;4.342;2022-11-20T13:28:47;8.40;99.90
17348;DHT22;8791;50.876;4.342;2022-11-20T13:31:31;8.40;99.90
17348;DHT22;8791;50.876;4.342;2022-11-20T13:33:59;8.30;99.90
17348;DHT22;8791;50.876;4.342;2022-11-20T13:36:29;8.20;99.90
17348;DHT22;8791;50.876;4.342;2022-11-20T13:38:58;8.10;99.90
17348;DHT22;8791;50.876;4.342;2022-11-20T13:41:26;8.20;99.90
17348;DHT22;8791;50.876;4.342;2022-11-20T13:44:09;8.20;99.90
17348;DHT22;8791;50.876;4.342;2022-11-20T13:46:38;8.10;99.90
17348;DHT22;8791;50.876;4.342;2022-11-20T13:49:08;8.00;99.90
17348;DHT22;8791;50.876;4.342;2022-11-20T13:51:41;8.00;99.90
17348;DHT22;8791;50.876;4.342;2022-11-20T13:54:57;8.10;99.90
17348;DHT22;8791;50.876;4.342;2022-11-20T14:00:44;8.20;99.90
17348;DHT22;8791;50.876;4.342;2022-11-20T14:03:17;8.30;99.90
17348;DHT22;8791;50.876;4.342;2022-11-20T14:05:50;8.20;99.90
17348;DHT22;8791;50.876;4.342;2022-11-20T14:08:25;8.30;99.90
17348;DHT22;8791;50.876;4.342;2022-11-20T14:11:03;8.30;99.90
17348;DHT22;8791;50.876;4.342;2022-11-20T14:13:30;8.20;99.90
17348;DHT22;8791;50.876;4.342;2022-11-20T14:15:58;8.30;99.90
17348;DHT22;8791;50.876;4.342;2022-11-20T14:18:26;8.30;99.90
17348;DHT22;8791;50.876;4.342;2022-11-20T14:20:53;8.40;99.90
17348;DHT22;8791;50.876;4.342;2022-11-20T14:23:25;8.40;99.90
17348;DHT22;8791;50.876;4.342;2022-11-20T14:25:52;8.40;99.90
17348;DHT22;8791;50.876;4.342;2022-11-20T14:28:24;8.40;99.90
17348;DHT22;8791;50.876;4.342;2022-11-20T14:30:52;8.40;99.90
17348;DHT22;8791;50.876;4.342;2022-11-20T14:33:20;8.50;99.90
17348;DHT22;8791;50.876;4.342;2022-11-20T14:35:52;8.50;99.90
17348;DHT22;8791;50.876;4.342;2022-11-20T14:38:24;8.50;99.90
17348;DHT22;8791;50.876;4.342;2022-11-20T14:40:52;8.60;99.90
17348;DHT22;8791;50.876;4.342;2022-11-20T14:43:22;8.60;99.90
17348;DHT22;8791;50.876;4.342;2022-11-20T14:45:56;8.50;99.90
17348;DHT22;8791;50.876;4.342;2022-11-20T14:48:29;8.60;99.90
17348;DHT22;8791;50.876;4.342;2022-11-20T14:50:57;8.50;99.90
17348;DHT22;8791;50.876;4.342;2022-11-20T14:53:25;8.60;99.90
17348;DHT22;8791;50.876;4.342;2022-11-20T14:55:57;8.50;99.90
17348;DHT22;8791;50.876;4.342;2022-11-20T14:58:26;8.40;99.90
17348;DHT22;8791;50.876;4.342;2022-11-20T15:00:54;8.50;99.90
17348;DHT22;8791;50.876;4.342;2022-11-20T15:03:21;8.50;99.90
17348;DHT22;8791;50.876;4.342;2022-11-20T15:05:50;8.50;99.90
17348;DHT22;8791;50.876;4.342;2022-11-20T15:08:18;8.60;99.90
17348;DHT22;8791;50.876;4.342;2022-11-20T15:10:46;8.70;99.90
17348;DHT22;8791;50.876;4.342;2022-11-20T15:13:24;8.70;99.90
17348;DHT22;8791;50.876;4.342;2022-11-20T15:15:53;8.80;99.90
17348;DHT22;8791;50.876;4.342;2022-11-20T15:18:24;8.90;99.90
17348;DHT22;8791;50.876;4.342;2022-11-20T15:20:54;9.00;99.90
17348;DHT22;8791;50.876;4.342;2022-11-20T15:23:21;9.20;99.90
17348;DHT22;8791;50.876;4.342;2022-11-20T15:25:48;9.30;99.90
17348;DHT22;8791;50.876;4.342;2022-11-20T15:28:20;9.30;99.90
17348;DHT22;8791;50.876;4.342;2022-11-20T15:30:49;9.30;99.90
17348;DHT22;8791;50.876;4.342;2022-11-20T15:33:17;9.30;99.90
17348;DHT22;8791;50.876;4.342;2022-11-20T15:35:44;9.40;99.90
17348;DHT22;8791;50.876;4.342;2022-11-20T15:38:12;9.40;99.90
17348;DHT22;8791;50.876;4.342;2022-11-20T15:40:39;9.50;99.90
17348;DHT22;8791;50.876;4.342;2022-11-20T15:43:06;9.50;99.90
17348;DHT22;8791;50.876;4.342;2022-11-20T15:45:38;9.60;99.90
17348;DHT22;8791;50.876;4.342;2022-11-20T15:48:09;9.50;99.90
17348;DHT22;8791;50.876;4.342;2022-11-20T15:50:38;9.40;99.90
17348;DHT22;8791;50.876;4.342;2022-11-20T15:53:09;9.50;99.90
17348;DHT22;8791;50.876;4.342;2022-11-20T15:55:38;9.60;99.90
17348;DHT22;8791;50.876;4.342;2022-11-20T15:58:05;9.60;99.90
17348;DHT22;8791;50.876;4.342;2022-11-20T16:00:32;9.70;99.90
17348;DHT22;8791;50.876;4.342;2022-11-20T16:02:58;9.80;99.90
17348;DHT22;8791;50.876;4.342;2022-11-20T16:05:28;9.90;99.90
17348;DHT22;8791;50.876;4.342;2022-11-20T16:07:55;9.90;99.90
17348;DHT22;8791;50.876;4.342;2022-11-20T16:10:22;9.80;99.90
17348;DHT22;8791;50.876;4.342;2022-11-20T16:12:50;10.00;99.90
17348;DHT22;8791;50.876;4.342;2022-11-20T16:15:34;10.10;99.90
17348;DHT22;8791;50.876;4.342;2022-11-20T16:18:16;10.10;99.90
17348;DHT22;8791;50.876;4.342;2022-11-20T16:20:44;10.10;99.90
17348;DHT22;8791;50.876;4.342;2022-11-20T16:23:11;10.10;99.90
17348;DHT22;8791;50.876;4.342;2022-11-20T16:25:38;10.00;99.90
17348;DHT22;8791;50.876;4.342;2022-11-20T16:28:06;9.80;99.90
17348;DHT22;8791;50.876;4.342;2022-11-20T16:30:33;9.90;99.90